Time;durP1;ratioP1;P1;durP2;ratioP2;P2;SDS_P1;SDS_P2;PMS_P1;PMS_P2;Temp;Humidity;BMP_temperature;BMP_pressure;BME280_temperature;BME280_humidity;BME280_pressure;Samples;Min_cycle;Max_cycle;Signal;HPM_P1;HPM_P2
2020/12/08 00:01:48;;;;;;;75.40;42.20;;;;;;;5.14;98.96;98192.59;5035580;28;20055;-86
2020/12/08 00:04:49;;;;;;;84.27;44.77;;;;;;;5.01;99.32;98188.56;5036716;28;20046;-86
2020/12/08 00:07:49;;;;;;;76.63;43.40;;;;;;;5.08;99.58;98179.00;5023897;28;20039;-86
2020/12/08 00:10:48;;;;;;;84.30;45.97;;;;;;;5.12;99.48;98170.78;5047838;28;20042;-86
2020/12/08 00:13:48;;;;;;;70.83;39.00;;;;;;;5.29;99.45;98175.97;5048160;28;20047;-86
2020/12/08 00:16:46;;;;;;;84.90;44.50;;;;;;;5.43;98.62;98166.56;5023296;28;20040;-87
2020/12/08 00:19:44;;;;;;;79.80;42.17;;;;;;;5.50;97.68;98156.19;5061744;28;20044;-85
2020/12/08 00:22:42;;;;;;;94.10;46.53;;;;;;;5.61;97.03;98154.06;5022948;28;20044;-86
2020/12/08 00:25:43;;;;;;;87.83;43.60;;;;;;;5.37;97.28;98146.09;5035710;28;20418;-85
2020/12/08 00:28:42;;;;;;;83.00;42.83;;;;;;;5.29;98.31;98144.25;5048172;28;20403;-86
2020/12/08 00:31:40;;;;;;;75.77;40.60;;;;;;;5.18;98.60;98147.19;5047470;28;20067;-86
2020/12/08 00:34:40;;;;;;;96.33;43.43;;;;;;;5.35;98.86;98142.78;5022826;28;20398;-86
2020/12/08 00:37:44;;;;;;;76.17;42.63;;;;;;;5.36;98.22;98141.78;5061249;28;20059;-85
2020/12/08 00:40:41;;;;;;;80.73;43.03;;;;;;;5.25;98.21;98140.28;5047510;28;20052;-84
2020/12/08 00:43:39;;;;;;;82.73;43.57;;;;;;;5.32;98.42;98140.44;5022267;28;20495;-85
2020/12/08 00:46:37;;;;;;;63.07;37.03;;;;;;;5.16;98.95;98143.06;5047732;28;20052;-86
2020/12/08 00:49:37;;;;;;;49.97;31.40;;;;;;;5.17;99.24;98144.72;5022190;28;20040;-86
2020/12/08 00:52:39;;;;;;;70.07;38.30;;;;;;;5.11;99.24;98140.06;5023273;28;20039;-86
2020/12/08 00:55:48;;;;;;;60.00;35.30;;;;;;;5.08;99.15;98134.09;5025078;28;20078;-86
2020/12/08 00:58:52;;;;;;;69.85;38.47;;;;;;;5.11;99.52;98129.50;5022645;28;20557;-85
2020/12/08 01:02:00;;;;;;;56.83;35.37;;;;;;;5.00;99.21;98130.63;5047536;28;20582;-85
2020/12/08 01:05:01;;;;;;;58.40;35.10;;;;;;;5.29;99.06;98117.00;5024240;28;20395;-85
2020/12/08 01:08:01;;;;;;;58.33;35.40;;;;;;;5.22;98.91;98111.53;5060711;28;20048;-84
2020/12/08 01:11:03;;;;;;;44.60;28.13;;;;;;;5.16;99.10;98119.28;5023615;28;20047;-84
2020/12/08 01:14:06;;;;;;;46.73;31.00;;;;;;;5.33;98.79;98123.59;5047874;28;20055;-84
2020/12/08 01:17:07;;;;;;;55.47;33.80;;;;;;;5.39;98.51;98122.97;5030897;28;20629;-85
2020/12/08 01:20:07;;;;;;;60.10;34.67;;;;;;;5.39;98.14;98120.31;5019760;28;20041;-86
2020/12/08 01:23:10;;;;;;;50.67;31.13;;;;;;;5.35;98.61;98116.34;5030481;28;20064;-85
2020/12/08 01:26:10;;;;;;;48.23;30.03;;;;;;;5.37;98.71;98117.00;5030469;28;20051;-86
2020/12/08 01:29:12;;;;;;;48.10;31.23;;;;;;;5.36;99.08;98118.81;5032275;28;20043;-85
2020/12/08 01:32:16;;;;;;;46.10;29.33;;;;;;;5.47;97.66;98106.28;5033722;28;20601;-85
2020/12/08 01:35:17;;;;;;;48.73;29.43;;;;;;;5.51;97.97;98099.69;5018642;28;20060;-84
2020/12/08 01:38:26;;;;;;;41.47;27.98;;;;;;;5.60;98.32;98102.16;5035580;28;20037;-85
2020/12/08 01:41:24;;;;;;;44.57;28.60;;;;;;;5.51;98.12;98094.41;5031570;28;20040;-85
2020/12/08 01:44:22;;;;;;;60.67;33.43;;;;;;;5.45;98.23;98090.56;5031498;28;20048;-84
2020/12/08 01:47:26;;;;;;;58.67;35.23;;;;;;;5.53;98.17;98085.31;5032210;28;20047;-87
2020/12/08 01:50:26;;;;;;;47.10;31.03;;;;;;;6.02;98.82;98086.13;5043692;28;20387;-87
2020/12/08 01:53:27;;;;;;;32.53;23.10;;;;;;;6.77;94.83;98083.13;5032230;28;20055;-87
2020/12/08 01:56:26;;;;;;;33.80;23.73;;;;;;;6.32;92.95;98084.59;5045046;28;20049;-87
2020/12/08 01:59:33;;;;;;;40.90;24.03;;;;;;;6.00;93.40;98068.81;5032483;28;20039;-88
2020/12/08 02:02:45;;;;;;;36.28;24.50;;;;;;;5.88;95.16;98056.88;5074422;23;20061;-87
2020/12/08 02:06:12;;;;;;;34.43;23.83;;;;;;;5.81;95.04;98052.25;5010697;28;20481;-87
2020/12/08 02:09:24;;;;;;;39.30;25.30;;;;;;;5.77;94.91;98058.88;4989466;28;20038;-86
2020/12/08 02:12:35;;;;;;;34.33;23.80;;;;;;;5.85;95.81;98059.84;4999888;28;20054;-86
2020/12/08 02:15:47;;;;;;;31.27;19.30;;;;;;;5.86;95.33;98048.28;4989761;28;20042;-86
2020/12/08 02:19:01;;;;;;;33.47;22.77;;;;;;;5.89;96.11;98040.06;4988393;28;20046;-85
2020/12/08 02:22:16;;;;;;;35.73;25.40;;;;;;;5.88;95.91;98035.72;5010445;28;20045;-87
2020/12/08 02:25:28;;;;;;;24.02;15.77;;;;;;;5.67;95.16;98030.94;4988653;28;20508;-87
2020/12/08 02:28:40;;;;;;;23.57;15.97;;;;;;;5.35;94.46;98026.47;4989479;28;20488;-86
2020/12/08 02:31:55;;;;;;;17.67;12.23;;;;;;;4.93;94.38;98018.69;4993058;28;20045;-86
2020/12/08 02:35:08;;;;;;;21.30;14.80;;;;;;;4.84;95.54;98007.25;4981265;28;20061;-86
2020/12/08 02:38:21;;;;;;;16.80;12.30;;;;;;;4.81;95.56;98010.25;4991374;28;20054;-86
2020/12/08 02:41:31;;;;;;;18.42;13.60;;;;;;;4.63;95.55;98004.22;4992791;28;20519;-86
2020/12/08 02:44:44;;;;;;;17.57;12.77;;;;;;;4.58;95.56;98007.38;5002566;28;20061;-85
2020/12/08 02:47:55;;;;;;;23.45;15.02;;;;;;;4.58;96.25;97993.34;5003003;28;20045;-84
2020/12/08 02:51:06;;;;;;;15.60;12.13;;;;;;;4.56;96.33;97990.03;4996737;28;20042;-87
2020/12/08 02:54:20;;;;;;;15.70;12.57;;;;;;;4.54;95.78;97986.72;4992985;28;20064;-86
2020/12/08 02:57:31;;;;;;;14.82;12.15;;;;;;;4.34;95.21;97986.19;4991908;28;20044;-86
2020/12/08 03:00:44;;;;;;;16.80;12.83;;;;;;;4.13;96.00;97985.75;4992590;28;20045;-85
2020/12/08 03:03:55;;;;;;;14.67;11.43;;;;;;;3.99;95.58;97971.34;4993460;28;20528;-85
2020/12/08 03:07:10;;;;;;;16.23;11.83;;;;;;;3.97;96.29;97960.13;4993687;28;20062;-85
2020/12/08 03:10:22;;;;;;;17.03;12.27;;;;;;;4.14;96.94;97966.28;4994451;28;20042;-86
2020/12/08 03:13:34;;;;;;;18.53;13.17;;;;;;;4.21;97.44;97957.59;4987869;28;20047;-86
2020/12/08 03:16:46;;;;;;;15.55;11.55;;;;;;;4.21;97.09;97962.88;4981910;28;20057;-85
2020/12/08 03:19:58;;;;;;;15.87;12.13;;;;;;;4.15;96.57;97952.13;4987459;28;20045;-85
2020/12/08 03:23:10;;;;;;;14.57;11.13;;;;;;;4.18;97.16;97950.00;4987066;28;20049;-86
2020/12/08 03:26:25;;;;;;;15.57;11.30;;;;;;;4.03;95.57;97956.03;4971652;28;20054;-86
2020/12/08 03:29:39;;;;;;;14.53;11.70;;;;;;;3.98;96.39;97961.78;4971786;28;20050;-85
2020/12/08 03:32:55;;;;;;;15.07;12.17;;;;;;;3.94;96.50;97955.16;4982464;28;20065;-84
2020/12/08 03:36:15;;;;;;;14.53;11.50;;;;;;;3.94;96.48;97955.16;4983078;28;20049;-85
2020/12/08 03:39:26;;;;;;;15.27;11.67;;;;;;;3.92;96.07;97955.31;4986444;28;20425;-85
2020/12/08 03:42:38;;;;;;;12.60;9.97;;;;;;;3.96;97.21;97950.56;4992332;28;20065;-85
2020/12/08 03:45:51;;;;;;;14.13;10.97;;;;;;;3.90;96.96;97938.00;4981913;28;20031;-85
2020/12/08 03:49:03;;;;;;;13.37;10.57;;;;;;;3.83;97.12;97922.00;4981929;28;20051;-85
2020/12/08 03:52:15;;;;;;;16.77;12.00;;;;;;;3.93;97.25;97920.06;4983764;28;20038;-86
2020/12/08 03:55:25;;;;;;;16.40;11.67;;;;;;;4.26;97.47;97915.72;4959571;28;20054;-87
2020/12/08 03:58:36;;;;;;;13.10;9.38;;;;;;;4.14;97.21;97909.09;4987429;28;20065;-86
2020/12/08 04:01:50;;;;;;;13.80;10.30;;;;;;;4.43;98.23;97903.41;4993895;28;20042;-85
2020/12/08 04:05:04;;;;;;;14.33;11.10;;;;;;;4.28;97.72;97905.84;4981981;28;20042;-85
2020/12/08 04:08:14;;;;;;;15.47;10.73;;;;;;;4.31;97.19;97912.63;4982690;28;20042;-85
2020/12/08 04:11:33;;;;;;;12.73;9.43;;;;;;;4.38;97.05;97915.41;4993473;28;20382;-85
2020/12/08 04:14:45;;;;;;;12.82;9.98;;;;;;;4.26;96.90;97914.91;4981771;28;20034;-84
2020/12/08 04:17:56;;;;;;;12.83;10.33;;;;;;;4.23;96.13;97916.06;4982006;28;20046;-84
2020/12/08 04:21:10;;;;;;;12.77;9.93;;;;;;;4.23;96.38;97917.88;4987493;28;20061;-85
2020/12/08 04:24:22;;;;;;;12.75;10.10;;;;;;;4.19;96.21;97916.53;4992571;28;20038;-85
2020/12/08 04:27:35;;;;;;;13.97;10.13;;;;;;;4.22;96.50;97917.03;4987637;28;20058;-85
2020/12/08 04:30:52;;;;;;;14.30;10.37;;;;;;;4.23;96.42;97912.59;4982238;28;20072;-85
2020/12/08 04:34:03;;;;;;;11.98;8.93;;;;;;;4.27;96.95;97906.81;4980161;28;20536;-84
2020/12/08 04:37:15;;;;;;;8.03;6.87;;;;;;;4.33;96.97;97902.72;4981604;28;20505;-84
2020/12/08 04:40:28;;;;;;;11.70;9.07;;;;;;;4.33;96.69;97892.16;4986303;28;20393;-85
2020/12/08 04:43:42;;;;;;;10.73;8.73;;;;;;;4.31;96.75;97889.69;4992097;28;20038;-86
2020/12/08 04:46:58;;;;;;;11.93;9.17;;;;;;;4.45;97.26;97885.59;4992132;28;20042;-86
2020/12/08 04:50:09;;;;;;;12.40;9.17;;;;;;;5.06;98.52;97893.06;4993095;28;20473;-85
2020/12/08 04:53:22;;;;;;;12.73;9.60;;;;;;;5.08;96.09;97887.59;4990949;28;20050;-85
2020/12/08 04:56:35;;;;;;;12.03;8.83;;;;;;;4.99;95.54;97881.50;4986720;28;20042;-85
2020/12/08 04:59:45;;;;;;;13.00;9.37;;;;;;;4.79;94.40;97885.47;4992615;28;20065;-85
2020/12/08 05:02:58;;;;;;;14.47;10.67;;;;;;;4.76;95.11;97884.97;4980637;28;20255;-86
2020/12/08 05:06:16;;;;;;;17.53;11.67;;;;;;;4.71;95.08;97867.00;4996527;28;20057;-86
2020/12/08 05:09:27;;;;;;;16.30;11.50;;;;;;;4.72;95.86;97871.25;4993832;28;20054;-85
2020/12/08 05:12:37;;;;;;;13.63;9.75;;;;;;;4.74;95.93;97874.56;4984906;28;20485;-86
2020/12/08 05:16:05;;;;;;;13.97;9.20;;;;;;;4.71;95.37;97875.75;4969117;28;20054;-85
2020/12/08 05:19:18;;;;;;;12.13;9.77;;;;;;;4.61;96.31;97863.66;4968896;28;20054;-85
2020/12/08 05:22:29;;;;;;;9.03;7.23;;;;;;;4.37;96.30;97875.00;4979624;28;20062;-86
2020/12/08 05:25:40;;;;;;;7.47;6.47;;;;;;;4.48;96.71;97868.63;4980917;28;20070;-85
2020/12/08 05:29:02;;;;;;;7.28;6.50;;;;;;;4.26;96.37;97875.31;4992023;28;20050;-84
2020/12/08 05:32:29;;;;;;;5.15;4.65;;;;;;;4.24;96.96;97872.03;4980776;28;20049;-83
2020/12/08 05:35:46;;;;;;;4.87;4.37;;;;;;;4.27;96.48;97871.69;4997141;28;20516;-84
2020/12/08 05:39:03;;;;;;;5.23;4.73;;;;;;;4.25;96.28;97863.94;4980928;28;20468;-85
2020/12/08 05:42:19;;;;;;;8.53;6.03;;;;;;;4.25;96.58;97863.13;4992194;28;20030;-85
2020/12/08 05:45:30;;;;;;;3.60;3.30;;;;;;;4.31;97.09;97858.03;4985379;28;20061;-85
2020/12/08 05:48:41;;;;;;;4.13;3.60;;;;;;;4.24;96.37;97853.56;4980597;28;20053;-85
2020/12/08 05:51:53;;;;;;;2.70;2.50;;;;;;;4.35;95.87;97855.91;4980714;28;20038;-84
2020/12/08 05:55:13;;;;;;;2.77;2.53;;;;;;;4.17;96.75;97857.84;4980568;28;20045;-84
2020/12/08 05:58:24;;;;;;;2.43;2.23;;;;;;;4.14;96.69;97850.22;4980668;28;20069;-85
2020/12/08 06:01:50;;;;;;;1.52;1.42;;;;;;;4.22;96.54;97851.09;4980408;28;21676;-84
2020/12/08 06:05:02;;;;;;;1.67;1.57;;;;;;;4.16;95.74;97848.25;4994778;28;20069;-84
2020/12/08 06:08:17;;;;;;;1.40;1.30;;;;;;;4.15;95.94;97846.63;4984530;28;20038;-84
2020/12/08 06:11:32;;;;;;;1.50;1.40;;;;;;;4.08;95.35;97842.97;4983035;28;20058;-83
2020/12/08 06:14:43;;;;;;;1.07;1.00;;;;;;;4.08;96.39;97843.81;4995379;28;20049;-83
2020/12/08 06:17:56;;;;;;;0.90;0.90;;;;;;;3.95;96.65;97840.81;4983966;28;20050;-83
2020/12/08 06:21:27;;;;;;;1.20;1.10;;;;;;;3.99;96.57;97834.22;4982908;28;20054;-84
2020/12/08 06:24:54;;;;;;;1.37;1.27;;;;;;;3.94;96.94;97831.25;4984134;28;20054;-83
2020/12/08 06:28:07;;;;;;;1.47;1.37;;;;;;;3.83;96.89;97829.72;4996011;28;20045;-83
2020/12/08 06:31:19;;;;;;;1.20;1.10;;;;;;;3.84;96.94;97834.00;4983616;28;20062;-84
2020/12/08 06:34:32;;;;;;;1.00;1.00;;;;;;;3.89;96.84;97828.28;4994862;28;20038;-84
2020/12/08 06:37:49;;;;;;;1.40;0.90;;;;;;;3.95;96.57;97830.25;4983968;28;20397;-84
2020/12/08 06:41:01;;;;;;;2.53;0.90;;;;;;;3.82;96.70;97822.81;4995253;28;20038;-85
2020/12/08 06:44:22;;;;;;;0.83;0.83;;;;;;;3.96;96.57;97826.63;4972292;28;20061;-84
2020/12/08 06:47:32;;;;;;;1.03;1.03;;;;;;;3.90;97.22;97827.25;4983446;28;20074;-86
2020/12/08 06:50:46;;;;;;;0.73;0.73;;;;;;;3.88;96.79;97826.63;4983883;28;20042;-84
2020/12/08 06:53:59;;;;;;;0.60;0.60;;;;;;;3.95;96.23;97825.81;4995174;28;20046;-85
2020/12/08 06:57:15;;;;;;;0.60;0.60;;;;;;;4.03;96.66;97808.34;4982998;28;20049;-84
2020/12/08 07:00:28;;;;;;;1.00;0.90;;;;;;;3.95;96.73;97825.81;4983436;28;20046;-84
2020/12/08 07:03:41;;;;;;;0.63;0.63;;;;;;;3.95;95.65;97824.97;4983017;28;20057;-84
2020/12/08 07:06:52;;;;;;;1.13;0.50;;;;;;;3.94;96.32;97828.59;4983364;28;20068;-83
2020/12/08 07:10:04;;;;;;;1.13;0.50;;;;;;;3.91;97.18;97828.91;5005005;28;20045;-82
2020/12/08 07:13:19;;;;;;;0.73;0.60;;;;;;;3.92;96.82;97826.13;4983333;28;20045;-84
2020/12/08 07:16:34;;;;;;;0.40;0.40;;;;;;;3.96;96.12;97821.38;4982329;28;20062;-85
2020/12/08 07:19:54;;;;;;;0.30;0.30;;;;;;;3.97;95.32;97825.66;4983606;28;20030;-84
2020/12/08 07:23:07;;;;;;;0.33;0.30;;;;;;;3.88;96.19;97824.81;4988137;28;20065;-84
2020/12/08 07:26:25;;;;;;;0.23;0.23;;;;;;;3.88;96.82;97819.53;4982804;28;20358;-83
2020/12/08 07:29:42;;;;;;;0.30;0.30;;;;;;;3.89;95.49;97821.19;4983447;28;20038;-84
2020/12/08 07:33:16;;;;;;;0.20;0.20;;;;;;;3.85;96.39;97817.22;4983393;28;20054;-85
2020/12/08 07:36:40;;;;;;;0.20;0.20;;;;;;;3.78;96.47;97815.34;4981976;28;20034;-84
2020/12/08 07:39:55;;;;;;;0.33;0.20;;;;;;;3.82;96.48;97806.97;4983436;28;20398;-84
2020/12/08 07:43:07;;;;;;;0.77;0.20;;;;;;;3.82;96.10;97814.06;4982097;28;20042;-83
2020/12/08 07:46:35;;;;;;;0.13;0.13;;;;;;;3.81;96.48;97813.25;4982632;28;20042;-84
2020/12/08 07:49:48;;;;;;;1.20;0.30;;;;;;;3.96;95.86;97811.63;4982305;28;20045;-84
2020/12/08 07:53:05;;;;;;;0.20;0.20;;;;;;;3.87;96.65;97811.78;4982393;28;20046;-84
2020/12/08 07:56:28;;;;;;;0.47;0.47;;;;;;;3.88;96.82;97813.44;4982372;28;20408;-84
2020/12/08 07:59:41;;;;;;;2.83;0.70;;;;;;;3.96;96.88;97806.38;4981096;28;20050;-84
2020/12/08 08:02:54;;;;;;;0.20;0.20;;;;;;;3.97;96.03;97810.66;4981495;28;20050;-83
2020/12/08 08:06:06;;;;;;;2.47;0.20;;;;;;;3.96;96.94;97802.91;4983044;28;20390;-82
2020/12/08 08:09:22;;;;;;;0.20;0.20;;;;;;;3.98;96.26;97808.84;4971090;28;20489;-82
2020/12/08 08:12:37;;;;;;;0.10;0.10;;;;;;;4.13;97.10;97801.94;4982490;28;20050;-83
2020/12/08 08:15:48;;;;;;;0.20;0.20;;;;;;;4.07;97.06;97797.31;4982453;28;20042;-82
2020/12/08 08:19:03;;;;;;;0.30;0.30;;;;;;;4.23;96.53;97804.44;4982194;28;20046;-83
2020/12/08 08:22:17;;;;;;;0.10;0.10;;;;;;;4.18;96.99;97801.44;4981900;28;20042;-84
2020/12/08 08:25:30;;;;;;;2.77;0.20;;;;;;;4.25;97.39;97798.00;4992839;28;20382;-83
2020/12/08 08:28:44;;;;;;;0.23;0.20;;;;;;;4.06;97.48;97792.19;4981853;28;20050;-84
2020/12/08 08:31:57;;;;;;;0.20;0.20;;;;;;;4.13;97.13;97793.22;4982055;28;20042;-83
2020/12/08 08:35:13;;;;;;;0.20;0.20;;;;;;;4.22;95.71;97794.88;4982875;28;20046;-83
2020/12/08 08:38:27;;;;;;;0.10;0.10;;;;;;;4.29;95.46;97788.78;4970253;28;20058;-84
2020/12/08 08:41:43;;;;;;;0.10;0.10;;;;;;;4.28;95.41;97787.13;4981201;28;20101;-84
2020/12/08 08:44:57;;;;;;;0.10;0.10;;;;;;;4.23;95.88;97786.81;4981850;28;20054;-83
2020/12/08 08:48:11;;;;;;;0.40;0.30;;;;;;;4.31;95.37;97792.06;4980655;28;20073;-84
2020/12/08 08:51:27;;;;;;;0.10;0.10;;;;;;;4.22;95.82;97782.50;4993393;28;20042;-84
2020/12/08 08:54:42;;;;;;;0.10;0.10;;;;;;;4.42;96.03;97792.72;4979819;28;20061;-84
2020/12/08 08:57:54;;;;;;;0.20;0.20;;;;;;;4.70;97.08;97783.50;4992455;28;20042;-83
2020/12/08 09:01:07;;;;;;;0.20;0.20;;;;;;;4.51;95.96;97783.81;4969861;28;20046;-82
2020/12/08 09:04:22;;;;;;;1.27;0.90;;;;;;;4.40;95.24;97790.25;4985416;28;20038;-82
2020/12/08 09:07:39;;;;;;;1.93;0.40;;;;;;;4.29;95.86;97783.50;4981461;28;20030;-83
2020/12/08 09:10:55;;;;;;;0.20;0.20;;;;;;;4.56;95.73;97784.16;4981092;28;20050;-82
2020/12/08 09:14:08;;;;;;;0.97;0.90;;;;;;;4.55;96.85;97785.16;4981304;28;20046;-83
2020/12/08 09:17:21;;;;;;;1.30;1.20;;;;;;;4.54;96.53;97788.78;4981181;28;20401;-83
2020/12/08 09:20:33;;;;;;;2.90;1.70;;;;;;;4.36;97.15;97791.59;4981206;28;20402;-84
2020/12/08 09:23:46;;;;;;;1.63;1.53;;;;;;;4.28;96.98;97788.94;4980992;28;20065;-84
2020/12/08 09:27:03;;;;;;;1.70;1.60;;;;;;;4.26;97.92;97797.00;4969789;28;20053;-83
2020/12/08 09:30:18;;;;;;;2.33;1.50;;;;;;;4.17;98.39;97787.44;4971098;28;20056;-85
2020/12/08 09:33:30;;;;;;;0.43;0.43;;;;;;;4.46;97.08;97791.44;4979109;28;20053;-82
2020/12/08 09:36:48;;;;;;;0.27;0.20;;;;;;;4.32;96.73;97782.34;4969570;28;20054;-82
2020/12/08 09:40:03;;;;;;;0.20;0.20;;;;;;;4.30;96.08;97781.69;4969572;28;20061;-83
2020/12/08 09:43:23;;;;;;;0.30;0.27;;;;;;;4.24;95.01;97785.00;4981327;28;20054;-83
2020/12/08 09:46:43;;;;;;;0.23;0.23;;;;;;;4.16;95.78;97779.69;4971009;28;20054;-83
2020/12/08 09:50:05;;;;;;;0.20;0.17;;;;;;;4.08;95.55;97771.78;4991000;28;20077;-83
2020/12/08 09:53:45;;;;;;;0.10;0.10;;;;;;;4.08;96.48;97766.50;4980454;28;20421;-83
2020/12/08 09:57:03;;;;;;;0.20;0.20;;;;;;;4.09;95.63;97774.25;4991779;28;20046;-83
2020/12/08 10:00:16;;;;;;;0.20;0.20;;;;;;;4.22;96.32;97763.22;4980604;28;20430;-84
2020/12/08 10:03:30;;;;;;;1.40;0.20;;;;;;;4.28;95.60;97760.72;4990804;28;20047;-84
2020/12/08 10:06:41;;;;;;;0.30;0.25;;;;;;;4.19;96.13;97756.44;4991483;28;20038;-83
2020/12/08 10:09:54;;;;;;;0.20;0.20;;;;;;;4.20;96.56;97752.81;4968412;28;20058;-82
2020/12/08 10:13:08;;;;;;;0.20;0.20;;;;;;;4.37;95.69;97744.94;4974766;28;20050;-83
2020/12/08 10:16:27;;;;;;;0.47;0.20;;;;;;;4.32;96.14;97740.13;4969351;28;20050;-84
2020/12/08 10:19:44;;;;;;;0.30;0.13;;;;;;;4.37;96.32;97739.66;4969805;28;20058;-82
2020/12/08 10:23:02;;;;;;;0.30;0.30;;;;;;;4.48;95.63;97742.78;4980754;28;20057;-83
2020/12/08 10:26:18;;;;;;;0.57;0.20;;;;;;;4.42;96.10;97742.59;4980849;28;20510;-83
2020/12/08 10:29:34;;;;;;;0.33;0.20;;;;;;;4.41;96.35;97741.78;4984655;28;20529;-83
2020/12/08 10:32:51;;;;;;;0.30;0.30;;;;;;;4.29;96.82;97737.81;4992283;28;20061;-83
2020/12/08 10:36:10;;;;;;;0.30;0.30;;;;;;;4.31;96.61;97730.56;4981682;28;20039;-82
2020/12/08 10:39:28;;;;;;;0.20;0.20;;;;;;;4.24;96.36;97719.03;4992600;28;20039;-82
2020/12/08 10:42:46;;;;;;;0.20;0.20;;;;;;;4.15;97.34;97705.00;4980646;28;20512;-83
2020/12/08 10:46:04;;;;;;;0.47;0.47;;;;;;;4.18;97.88;97709.13;4980843;28;20045;-83
2020/12/08 10:49:21;;;;;;;0.63;0.60;;;;;;;4.27;98.22;97714.22;4985203;28;20050;-84
2020/12/08 10:52:40;;;;;;;3.83;1.90;;;;;;;4.43;96.90;97728.41;4995980;28;20042;-82
2020/12/08 10:55:56;;;;;;;1.60;0.73;;;;;;;4.37;96.59;97729.09;4972862;28;20047;-83
2020/12/08 10:59:12;;;;;;;1.73;1.20;;;;;;;4.37;96.53;97727.25;4972470;28;20046;-83
2020/12/08 11:02:29;;;;;;;0.60;0.50;;;;;;;4.54;97.53;97720.16;4971728;28;20046;-83
2020/12/08 11:05:46;;;;;;;0.20;0.20;;;;;;;4.67;95.41;97723.09;4971883;28;20042;-84
2020/12/08 11:09:03;;;;;;;2.93;0.50;;;;;;;4.58;95.92;97718.84;4972123;28;20050;-84
2020/12/08 11:12:20;;;;;;;0.20;0.20;;;;;;;4.63;95.53;97708.59;4981508;28;20069;-84
2020/12/08 11:15:37;;;;;;;0.23;0.23;;;;;;;4.55;94.52;97711.25;4989055;28;20034;-83
2020/12/08 11:18:52;;;;;;;0.10;0.10;;;;;;;4.65;95.29;97717.16;4988310;28;20050;-84
2020/12/08 11:22:09;;;;;;;0.23;0.20;;;;;;;4.88;96.51;97709.34;4987398;28;20054;-83
2020/12/08 11:25:23;;;;;;;0.20;0.20;;;;;;;4.82;95.12;97713.50;4983439;28;20030;-83
2020/12/08 11:28:35;;;;;;;0.30;0.20;;;;;;;4.91;95.13;97701.91;4994433;28;20500;-84
2020/12/08 11:31:48;;;;;;;0.30;0.30;;;;;;;4.97;95.12;97695.13;4983171;28;20049;-83
2020/12/08 11:35:01;;;;;;;0.30;0.30;;;;;;;4.79;94.69;97692.72;4994652;28;20046;-84
2020/12/08 11:38:14;;;;;;;0.30;0.30;;;;;;;5.02;93.18;97688.34;4993972;28;20038;-82
2020/12/08 11:41:27;;;;;;;0.10;0.10;;;;;;;4.98;94.17;97692.31;4971308;28;20054;-83
2020/12/08 11:44:37;;;;;;;;;;;;;;;4.84;94.06;97686.94;4971758;28;20061;-83
2020/12/08 11:47:49;;;;;;;0.30;0.30;;;;;;;4.79;94.37;97687.44;4982357;28;19925;-84
2020/12/08 11:50:59;;;;;;;0.10;0.03;;;;;;;4.72;93.74;97676.72;4986797;28;20523;-84
2020/12/08 11:54:12;;;;;;;0.53;0.30;;;;;;;4.74;94.79;97679.19;4981452;28;20054;-84
2020/12/08 11:57:23;;;;;;;;;;;;;;;4.71;94.85;97671.63;4993519;28;20046;-84
2020/12/08 12:00:34;;;;;;;0.30;0.30;;;;;;;4.83;94.46;97672.91;4981831;28;20285;-85
2020/12/08 12:03:46;;;;;;;0.30;0.30;;;;;;;5.06;95.59;97667.69;4969707;28;20493;-85
2020/12/08 12:06:57;;;;;;;2.08;0.57;;;;;;;5.07;94.18;97672.78;4970656;28;20382;-84
2020/12/08 12:10:09;;;;;;;0.40;0.40;;;;;;;5.08;94.19;97668.31;4993306;28;20049;-83
2020/12/08 12:13:24;;;;;;;0.80;0.37;;;;;;;5.13;94.10;97662.53;4993880;28;20052;-84
2020/12/08 12:16:37;;;;;;;0.30;0.30;;;;;;;5.32;94.16;97662.09;4971835;28;20042;-84
2020/12/08 12:19:53;;;;;;;0.40;0.40;;;;;;;5.32;93.81;97657.66;4993800;28;20053;-84
2020/12/08 12:23:07;;;;;;;0.83;0.60;;;;;;;5.38;94.74;97645.56;4981634;28;20053;-84
2020/12/08 12:26:18;;;;;;;0.30;0.30;;;;;;;5.38;94.61;97643.75;4982766;28;20038;-83
2020/12/08 12:29:34;;;;;;;2.77;0.70;;;;;;;5.61;95.12;97645.59;4981676;28;20035;-83
2020/12/08 12:32:50;;;;;;;0.60;0.60;;;;;;;5.43;94.03;97656.44;4970851;28;20046;-84
2020/12/08 12:36:03;;;;;;;0.50;0.50;;;;;;;5.54;94.97;97660.50;4993268;28;20060;-83
2020/12/08 12:39:15;;;;;;;0.57;0.30;;;;;;;5.42;93.92;97650.34;4970474;28;20042;-83
2020/12/08 12:42:29;;;;;;;1.80;0.80;;;;;;;5.51;94.63;97645.81;4969795;28;20050;-84
2020/12/08 12:45:42;;;;;;;0.83;0.80;;;;;;;5.38;93.97;97643.75;4981908;28;20045;-84
2020/12/08 12:48:55;;;;;;;1.70;0.90;;;;;;;5.43;94.30;97646.69;4981691;28;20038;-84
2020/12/08 12:52:06;;;;;;;1.40;1.30;;;;;;;5.50;94.48;97636.25;4992100;28;20512;-85
2020/12/08 12:55:18;;;;;;;0.80;0.80;;;;;;;5.49;94.80;97633.78;4981132;28;20038;-84
2020/12/08 12:58:30;;;;;;;1.23;1.13;;;;;;;6.18;97.31;97635.41;4979781;28;20062;-84
2020/12/08 13:01:41;;;;;;;1.37;1.23;;;;;;;5.87;94.56;97639.94;4981040;28;20042;-84
2020/12/08 13:04:53;;;;;;;1.35;1.25;;;;;;;5.97;95.27;97643.19;4969091;28;20058;-85
2020/12/08 13:08:05;;;;;;;1.53;1.20;;;;;;;5.89;93.72;97636.16;4992761;28;20097;-84
2020/12/08 13:11:17;;;;;;;1.10;1.05;;;;;;;5.76;94.08;97633.25;4969397;28;20054;-83
2020/12/08 13:14:29;;;;;;;1.23;1.13;;;;;;;5.74;94.08;97636.06;4995157;28;20045;-84
2020/12/08 13:17:42;;;;;;;1.40;1.30;;;;;;;5.89;94.52;97630.06;4981005;28;20473;-84
2020/12/08 13:20:57;;;;;;;2.47;1.40;;;;;;;5.91;94.54;97628.03;4969537;28;20065;-83
2020/12/08 13:24:10;;;;;;;1.73;1.63;;;;;;;5.92;94.71;97627.84;4992424;28;20051;-83
2020/12/08 13:27:22;;;;;;;2.03;1.63;;;;;;;6.02;94.78;97632.88;4985784;28;20096;-83
2020/12/08 13:30:33;;;;;;;1.30;1.25;;;;;;;5.82;94.04;97617.50;4969163;28;20409;-82
2020/12/08 13:33:45;;;;;;;3.08;1.73;;;;;;;6.03;94.94;97613.38;4985083;28;20046;-84
2020/12/08 13:37:00;;;;;;;2.40;1.80;;;;;;;6.12;94.82;97604.38;4981152;28;20038;-84
2020/12/08 13:40:12;;;;;;;3.93;2.00;;;;;;;5.66;94.75;97596.47;4980815;28;20041;-84
2020/12/08 13:43:25;;;;;;;3.55;1.80;;;;;;;6.32;97.67;97591.44;4980960;28;20035;-86
2020/12/08 13:46:39;;;;;;;1.40;1.03;;;;;;;6.26;94.07;97597.44;4970098;28;20046;-85
2020/12/08 13:49:49;;;;;;;1.20;1.10;;;;;;;6.08;92.92;97595.16;4984723;28;20065;-85
2020/12/08 13:53:03;;;;;;;1.20;1.10;;;;;;;6.07;93.72;97593.50;4969002;28;20402;-85
2020/12/08 13:56:16;;;;;;;1.57;1.20;;;;;;;6.31;94.35;97590.63;4980497;28;20038;-85
2020/12/08 13:59:29;;;;;;;1.47;1.37;;;;;;;6.21;93.79;97600.66;4992323;28;20367;-85
2020/12/08 14:02:40;;;;;;;;;;;;;;;6.02;94.02;97611.72;4968960;28;20054;-84
2020/12/08 14:05:55;;;;;;;1.35;1.25;;;;;;;6.10;95.26;97606.38;4984632;28;19917;-85
2020/12/08 14:09:09;;;;;;;2.07;1.60;;;;;;;6.08;94.62;97608.38;4989848;28;20058;-84
2020/12/08 14:12:26;;;;;;;2.00;1.80;;;;;;;5.94;95.20;97606.50;4991812;28;20050;-86
2020/12/08 14:15:41;;;;;;;2.63;1.70;;;;;;;6.01;95.31;97616.22;4980870;28;20049;-85
2020/12/08 14:18:56;;;;;;;1.73;1.63;;;;;;;5.84;96.04;97609.38;4985351;28;20054;-84
2020/12/08 14:22:10;;;;;;;1.60;1.50;;;;;;;5.98;96.23;97608.63;4980513;28;20046;-84
2020/12/08 14:25:23;;;;;;;1.90;1.60;;;;;;;6.00;96.07;97616.41;4983945;28;20050;-84
2020/12/08 14:28:36;;;;;;;1.40;1.30;;;;;;;6.08;96.02;97605.72;4984030;28;20046;-84
2020/12/08 14:31:50;;;;;;;2.70;2.20;;;;;;;6.14;96.63;97605.00;4995655;28;20042;-85
2020/12/08 14:35:02;;;;;;;2.17;1.97;;;;;;;6.56;96.47;97608.88;4994914;28;20510;-84
2020/12/08 14:38:15;;;;;;;1.80;1.70;;;;;;;6.40;95.80;97605.41;4983919;28;20038;-85
2020/12/08 14:41:28;;;;;;;1.90;1.50;;;;;;;6.00;95.65;97613.75;4982412;28;20050;-85
2020/12/08 14:44:42;;;;;;;2.00;1.57;;;;;;;5.95;96.70;97606.34;4982399;28;20054;-85
2020/12/08 14:47:57;;;;;;;2.07;1.60;;;;;;;5.86;96.71;97603.91;4983959;28;20047;-84
2020/12/08 14:51:12;;;;;;;3.63;1.80;;;;;;;5.99;96.88;97606.81;4971761;28;20050;-85
2020/12/08 14:54:25;;;;;;;2.37;2.03;;;;;;;5.95;96.41;97613.44;4971947;28;20525;-84
2020/12/08 14:57:38;;;;;;;3.00;2.37;;;;;;;5.95;96.24;97621.38;4983549;28;20034;-85
2020/12/08 15:00:50;;;;;;;2.83;2.60;;;;;;;5.98;96.50;97643.03;4981819;28;20057;-85
2020/12/08 15:04:03;;;;;;;3.07;2.77;;;;;;;5.85;95.90;97641.94;4983108;28;20054;-84
2020/12/08 15:07:15;;;;;;;3.27;2.93;;;;;;;5.87;97.03;97634.66;4983527;28;20516;-85
2020/12/08 15:10:30;;;;;;;2.60;2.40;;;;;;;5.76;96.65;97639.38;4983677;28;20457;-85